Strona główna
METAR-TAF:

METAR-TAF

Lotnisko :

Port lotniczy Subic Bay

Subic Bay, Filipiny

Szerokość geograficzna: 14-48N, Długość geograficzna: 120-16E, wysokość: 18 m

Aktualna obserwacja pogody

Raport powstał 25 minut temu, godzina 22:00 UTC
Wiatr 2 kt od wschodnio-północny wschód
Temperatura 23°C
Wilgotność 83%
Ciśnienie 1014 hPa
Widzialność 10 km lub więcej
Mało chmury na wysokości 2000 ft

METAR: RPLB 102200Z 07002KT 9999 FEW020 23/20 Q1014 NOSIG RMK A2994

czas: 06:25 (22:25 UTC)

Prognoza

Raport powstał 5 godziny i 25 minut temu, godzina 17:00 UTC
Prognoza ważna od 10 godzina 18 UTC do 11 godzina 18 UTC
Wiatr 6 kt od wschodnio-północny wschód
Widzialność 10 km lub więcej
Mało chmury na wysokości 2000 ft
Przejściowo
od 10 godzina 18 UTC do 10 godzina 24 UTC
Wiatr 9 kt od wschód
Mało chmury na wysokości 2000 ft
Rozproszone chmury na wysokości 8000 ft

TAF: RPLB 101700Z 1018/1118 06006KT 9999 FEW020 TX34/1106Z TN24/1021Z TEMPO 1018/1024 08009KT FEW020 SCT080

Obserwacja i prognoza pogody dla ponad 4000 lotnisk (raport METAR i TAF).

Dostępne stacje oznaczono żółtymi i czerwonymi punktami na mapie.

Najedź kursorem aby zobaczyć nazwę stacji.

Kliknij aby zobaczyć obserwacje i prognozy pogody.

Aby zmienić mapę: kliknij na zielony przycisk z czarnym krzyżykiem, aby powiększyć; na zielony przycisk z myślnikiem, aby pomniejszyć; na zielone strzałki, aby przejść do map sąsiednich.


METAR-TAF: